Terminal Aerodrome Forecast
Issued by NWS

Home | Current Version | Previous Version | Text Only | Print | Product List | Glossary On
Versions: 1 2 3 4 5 6 7 8 9 10 11 12 13 14 15 16 17 18 19 20 21 22 23 24 25 26 27 28 29 30 31 32 33
000
FTUS44 KTSA 192300
TAFMLC
TAF
KMLC 192337Z 2000/2024 34006KT 2SM BR OVC003
      TEMPO 2000/2003 1/2SM FG OVC002
     FM200600 VRB03KT 2SM BR OVC005
     FM201900 20006KT P6SM OVC012=

USA.gov is the U.S. government's official web portal to all federal, state and local government web resources and services.